Time;durP1;ratioP1;P1;durP2;ratioP2;P2;SDS_P1;SDS_P2;PMS_P1;PMS_P2;Temp;Humidity;BMP_temperature;BMP_pressure;BME280_temperature;BME280_humidity;BME280_pressure;Samples;Min_cycle;Max_cycle;Signal;HPM_P1;HPM_P2
2022/06/18 00:02:22;;;;;;;3.83;3.50;;;19.60;85.70;;;;;;4966533;28;20448;-67
2022/06/18 00:04:48;;;;;;;5.03;4.20;;;19.70;85.80;;;;;;4971662;28;20200;-66
2022/06/18 00:07:20;;;;;;;4.20;3.90;;;19.70;85.80;;;;;;4969322;28;20187;-67
2022/06/18 00:09:56;;;;;;;4.10;3.38;;;19.70;86.40;;;;;;4971446;28;20682;-66
2022/06/18 00:15:41;;;;;;;3.70;3.40;;;19.60;87.10;;;;;;4965843;28;20215;-66
2022/06/18 00:18:12;;;;;;;3.88;3.28;;;19.50;87.90;;;;;;4968665;28;20216;-66
2022/06/18 00:20:38;;;;;;;3.95;3.13;;;19.50;87.60;;;;;;4972185;28;20204;-66
2022/06/18 00:23:10;;;;;;;4.05;3.75;;;19.50;87.50;;;;;;4972133;28;20207;-67
2022/06/18 00:25:39;;;;;;;4.00;3.70;;;19.10;87.50;;;;;;4971230;28;20271;-67
2022/06/18 00:28:16;;;;;;;3.53;3.22;;;19.40;87.80;;;;;;4970900;28;20184;-67
2022/06/18 00:30:42;;;;;;;3.80;3.33;;;19.40;87.70;;;;;;4969368;28;20219;-67
2022/06/18 00:33:08;;;;;;;3.70;3.40;;;19.40;87.90;;;;;;4971791;28;20251;-67
2022/06/18 00:35:34;;;;;;;5.18;4.07;;;19.40;88.10;;;;;;4971674;28;20463;-67
2022/06/18 00:38:02;;;;;;;3.28;3.08;;;19.50;88.00;;;;;;4969162;28;20548;-66
2022/06/18 00:40:37;;;;;;;4.68;3.30;;;19.50;87.90;;;;;;4969842;28;20200;-67
2022/06/18 00:43:17;;;;;;;5.13;3.53;;;19.50;87.40;;;;;;4964343;28;20665;-67
2022/06/18 00:45:43;;;;;;;3.45;3.25;;;19.50;86.80;;;;;;4971483;28;20184;-67
2022/06/18 00:48:19;;;;;;;4.40;3.40;;;19.50;86.80;;;;;;4969546;28;20184;-66
2022/06/18 00:51:18;;;;;;;3.50;3.30;;;19.60;86.80;;;;;;4974626;28;20294;-66
2022/06/18 00:53:49;;;;;;;3.20;2.90;;;19.60;86.30;;;;;;4969725;28;21161;-67
2022/06/18 00:56:28;;;;;;;4.22;3.92;;;19.50;86.10;;;;;;4967138;28;20296;-67
2022/06/18 00:59:01;;;;;;;3.30;3.10;;;19.60;86.20;;;;;;4971435;28;20184;-67
2022/06/18 01:01:34;;;;;;;3.40;3.10;;;19.50;86.10;;;;;;4969705;28;20207;-68
2022/06/18 01:04:00;;;;;;;3.45;3.15;;;19.40;86.20;;;;;;4968210;28;20677;-66
2022/06/18 01:06:30;;;;;;;3.17;2.87;;;19.40;86.60;;;;;;4964760;28;20203;-66
2022/06/18 01:08:59;;;;;;;3.10;2.90;;;19.40;86.70;;;;;;4969730;28;20443;-66
2022/06/18 01:11:29;;;;;;;3.75;3.45;;;19.30;87.00;;;;;;4971593;28;20740;-66
2022/06/18 01:13:56;;;;;;;3.97;3.67;;;19.30;87.50;;;;;;4970863;28;20191;-66
2022/06/18 01:16:23;;;;;;;3.03;2.80;;;19.30;87.70;;;;;;4969596;28;20239;-66
2022/06/18 01:18:51;;;;;;;3.20;3.00;;;19.30;87.30;;;;;;4963758;28;20184;-68
2022/06/18 01:21:27;;;;;;;3.60;3.38;;;19.40;87.40;;;;;;4977150;28;20239;-66
2022/06/18 01:24:10;;;;;;;3.40;3.10;;;19.40;87.40;;;;;;4974250;28;20675;-66
2022/06/18 01:26:37;;;;;;;2.85;2.65;;;19.40;86.60;;;;;;4974890;28;20558;-66
2022/06/18 01:29:03;;;;;;;3.15;2.95;;;19.30;86.70;;;;;;4974320;28;20299;-66
2022/06/18 01:31:30;;;;;;;3.60;3.30;;;19.30;87.00;;;;;;4976997;28;20294;-66
2022/06/18 01:33:57;;;;;;;3.22;3.03;;;19.30;87.00;;;;;;4971883;28;20450;-66
2022/06/18 01:36:24;;;;;;;3.40;3.20;;;19.30;87.30;;;;;;4981207;28;20212;-66
2022/06/18 01:38:49;;;;;;;3.00;2.80;;;19.30;87.30;;;;;;4976425;28;20188;-66
2022/06/18 01:44:38;;;;;;;3.72;3.42;;;19.30;88.00;;;;;;4981813;28;20271;-66
2022/06/18 01:47:24;;;;;;;3.35;3.15;;;19.20;88.10;;;;;;4968266;28;20546;-66
2022/06/18 01:50:06;;;;;;;6.70;3.78;;;19.30;88.50;;;;;;4980197;28;20286;-67
2022/06/18 01:52:38;;;;;;;3.13;2.92;;;19.30;88.50;;;;;;4977338;28;20568;-66
2022/06/18 01:55:22;;;;;;;3.55;3.25;;;19.20;88.10;;;;;;4974761;28;20208;-66
2022/06/18 01:57:52;;;;;;;3.20;2.90;;;19.20;89.10;;;;;;4976346;28;20180;-66
2022/06/18 02:00:22;;;;;;;3.03;2.83;;;19.10;89.00;;;;;;4968061;28;20200;-66
2022/06/18 02:02:47;;;;;;;3.80;3.47;;;19.00;89.50;;;;;;4968227;28;20220;-66
2022/06/18 02:05:15;;;;;;;3.53;3.17;;;19.00;89.80;;;;;;4983419;28;20215;-66
2022/06/18 02:07:43;;;;;;;3.47;3.20;;;19.00;89.90;;;;;;4979489;28;20180;-64
2022/06/18 02:10:15;;;;;;;3.72;3.42;;;19.00;90.00;;;;;;4973814;28;20203;-64
2022/06/18 02:12:41;;;;;;;3.03;2.72;;;19.00;90.20;;;;;;4979742;28;20207;-65
2022/06/18 02:15:12;;;;;;;3.15;2.95;;;18.90;90.30;;;;;;4986998;28;20236;-64
2022/06/18 02:17:40;;;;;;;3.20;2.80;;;18.90;90.30;;;;;;4968801;28;20188;-65
2022/06/18 02:20:08;;;;;;;3.75;3.47;;;18.90;90.20;;;;;;4975741;28;20225;-64
2022/06/18 02:22:42;;;;;;;6.55;2.95;;;19.00;90.40;;;;;;4975475;28;20235;-65
2022/06/18 02:25:09;;;;;;;3.38;3.17;;;19.00;90.20;;;;;;4981976;28;20270;-65
2022/06/18 02:27:35;;;;;;;3.17;2.97;;;18.90;90.20;;;;;;4971087;28;20195;-65
2022/06/18 02:30:01;;;;;;;3.30;3.10;;;18.90;90.20;;;;;;4974783;28;20242;-65
2022/06/18 02:32:35;;;;;;;3.50;3.20;;;18.90;90.40;;;;;;4972007;28;20227;-65
2022/06/18 02:35:01;;;;;;;3.30;3.05;;;18.90;90.40;;;;;;4973689;28;20486;-64
2022/06/18 02:37:30;;;;;;;4.07;2.90;;;18.90;90.40;;;;;;4972748;28;20251;-65
2022/06/18 02:40:01;;;;;;;3.42;3.13;;;18.90;90.30;;;;;;4972736;28;20213;-66
2022/06/18 02:42:31;;;;;;;3.50;3.25;;;18.90;90.40;;;;;;4974507;28;20184;-65
2022/06/18 02:44:57;;;;;;;5.97;4.20;;;19.00;90.50;;;;;;4979007;28;20212;-65
2022/06/18 02:47:23;;;;;;;3.50;3.30;;;18.90;90.60;;;;;;4976805;28;20672;-66
2022/06/18 02:50:01;;;;;;;3.60;3.40;;;18.90;90.60;;;;;;4972507;28;20347;-65
2022/06/18 02:52:33;;;;;;;3.72;3.42;;;18.80;90.80;;;;;;4973086;28;20187;-65
2022/06/18 02:55:21;;;;;;;4.68;3.40;;;18.80;91.00;;;;;;4973840;28;20187;-65
2022/06/18 02:57:52;;;;;;;3.38;3.17;;;18.60;90.90;;;;;;4970917;28;20181;-65
2022/06/18 03:00:18;;;;;;;3.20;3.00;;;18.80;91.10;;;;;;4973466;28;20215;-65
2022/06/18 03:02:44;;;;;;;3.65;3.35;;;18.80;91.10;;;;;;4973612;28;20203;-66
2022/06/18 03:05:22;;;;;;;3.90;3.50;;;18.70;91.10;;;;;;4976010;28;20231;-65
2022/06/18 03:07:48;;;;;;;8.15;3.60;;;18.70;91.50;;;;;;4973243;28;20192;-65
2022/06/18 03:13:00;;;;;;;3.80;3.40;;;18.80;91.50;;;;;;4974299;28;20665;-65
2022/06/18 03:15:25;;;;;;;4.30;3.90;;;18.70;91.50;;;;;;4972525;28;20215;-65
2022/06/18 03:17:52;;;;;;;3.97;3.67;;;19.00;91.60;;;;;;4965117;28;20661;-65
2022/06/18 03:20:21;;;;;;;6.53;3.33;;;18.70;91.50;;;;;;4971364;28;20575;-65
2022/06/18 03:22:47;;;;;;;3.50;3.22;;;18.70;91.40;;;;;;4973398;28;20193;-65
2022/06/18 03:25:13;;;;;;;3.55;3.25;;;18.70;91.40;;;;;;4973330;28;20665;-66
2022/06/18 03:27:38;;;;;;;3.50;3.30;;;18.70;91.50;;;;;;4967918;28;20192;-65
2022/06/18 03:30:05;;;;;;;3.60;3.30;;;18.70;91.60;;;;;;4971732;28;20211;-65
2022/06/18 03:32:32;;;;;;;3.70;3.40;;;18.70;91.50;;;;;;4966946;28;20185;-65
2022/06/18 03:34:57;;;;;;;3.90;3.60;;;18.60;91.70;;;;;;4969387;28;20184;-65
2022/06/18 03:37:23;;;;;;;3.90;3.60;;;18.50;91.80;;;;;;4972289;28;20184;-65
2022/06/18 03:39:49;;;;;;;3.70;3.40;;;18.50;91.90;;;;;;4970780;28;20258;-64
2022/06/18 03:42:14;;;;;;;3.77;3.57;;;18.50;92.00;;;;;;4966741;28;20447;-65
2022/06/18 03:44:40;;;;;;;3.77;3.50;;;18.50;92.00;;;;;;4973173;28;20180;-65
2022/06/18 03:47:06;;;;;;;3.60;3.40;;;18.50;92.10;;;;;;4976101;28;20195;-65
2022/06/18 03:49:33;;;;;;;4.00;3.70;;;18.50;92.00;;;;;;4976322;28;20211;-65
2022/06/18 03:52:01;;;;;;;3.75;3.55;;;18.50;92.10;;;;;;4971065;28;20502;-64
2022/06/18 03:54:27;;;;;;;3.95;3.55;;;18.50;92.10;;;;;;4968177;28;20533;-65
2022/06/18 03:56:53;;;;;;;4.20;3.90;;;18.50;92.20;;;;;;4970689;28;20283;-65
2022/06/18 03:59:20;;;;;;;4.17;3.50;;;18.50;92.10;;;;;;4972217;28;20259;-65
2022/06/18 04:01:46;;;;;;;3.92;3.63;;;18.50;92.20;;;;;;4969229;28;20432;-65
2022/06/18 04:04:13;;;;;;;4.03;3.70;;;18.50;92.30;;;;;;4971371;28;20716;-64
2022/06/18 04:06:40;;;;;;;4.03;3.72;;;18.50;92.10;;;;;;4971870;28;20210;-65
2022/06/18 04:09:06;;;;;;;3.95;3.55;;;18.50;92.00;;;;;;4970688;28;20593;-64
2022/06/18 04:11:32;;;;;;;3.50;3.30;;;18.50;91.90;;;;;;4970063;28;20200;-65
2022/06/18 04:13:58;;;;;;;3.60;3.40;;;18.60;91.90;;;;;;4972067;28;20200;-65
2022/06/18 04:16:24;;;;;;;4.40;4.10;;;18.60;91.90;;;;;;4971725;28;20204;-65
2022/06/18 04:18:49;;;;;;;4.40;4.03;;;18.60;91.90;;;;;;4969354;28;20267;-65
2022/06/18 04:21:16;;;;;;;3.50;3.30;;;18.70;91.80;;;;;;4970754;28;20286;-65
2022/06/18 04:23:42;;;;;;;3.80;3.33;;;18.90;91.80;;;;;;4971826;28;20179;-65
2022/06/18 04:26:09;;;;;;;5.20;4.75;;;19.00;91.80;;;;;;4970127;28;20198;-65
2022/06/18 04:28:35;;;;;;;4.82;3.67;;;18.80;91.80;;;;;;4974060;28;20190;-65
2022/06/18 04:31:01;;;;;;;4.80;3.40;;;18.90;91.90;;;;;;4971705;28;20749;-65
2022/06/18 04:33:27;;;;;;;4.47;4.03;;;19.00;92.10;;;;;;4970337;28;20188;-65
2022/06/18 04:35:54;;;;;;;5.90;3.92;;;19.00;92.10;;;;;;4970239;28;20308;-65
2022/06/18 04:38:20;;;;;;;5.05;4.30;;;18.90;92.20;;;;;;4972186;28;20191;-66
2022/06/18 04:40:46;;;;;;;4.10;3.35;;;18.90;92.30;;;;;;4968259;28;20207;-67
2022/06/18 04:43:13;;;;;;;4.20;3.80;;;19.00;92.50;;;;;;4971212;28;20223;-66
2022/06/18 04:45:38;;;;;;;4.80;4.30;;;19.10;92.40;;;;;;4971243;28;20192;-67
2022/06/18 04:48:05;;;;;;;3.77;3.47;;;19.20;92.40;;;;;;4962727;28;20191;-67
2022/06/18 04:50:37;;;;;;;4.75;3.80;;;19.30;92.20;;;;;;4961434;28;20241;-67
2022/06/18 04:53:05;;;;;;;4.32;3.92;;;19.30;92.10;;;;;;4971969;28;20188;-66
2022/06/18 04:55:31;;;;;;;3.97;3.67;;;19.40;92.10;;;;;;4961316;28;20343;-66
2022/06/18 04:57:56;;;;;;;5.20;4.00;;;19.50;92.30;;;;;;4971293;28;20665;-67
2022/06/18 05:00:22;;;;;;;4.10;3.80;;;19.50;92.30;;;;;;4970864;28;20475;-68
2022/06/18 05:02:48;;;;;;;4.23;3.83;;;19.50;92.50;;;;;;4969262;28;20470;-67
2022/06/18 05:05:17;;;;;;;4.10;3.90;;;19.60;92.60;;;;;;4968980;28;20215;-63
2022/06/18 05:07:42;;;;;;;4.78;4.18;;;20.10;92.70;;;;;;4965297;28;20188;-65
2022/06/18 05:10:09;;;;;;;4.17;3.90;;;19.80;92.40;;;;;;4970008;28;20224;-65
2022/06/18 05:12:35;;;;;;;4.68;4.28;;;19.90;92.30;;;;;;4961106;28;20555;-71
2022/06/18 05:15:00;;;;;;;3.77;3.47;;;20.00;92.40;;;;;;4969027;28;20262;-70
2022/06/18 05:17:29;;;;;;;4.03;3.73;;;20.20;92.40;;;;;;4969218;28;20219;-70
2022/06/18 05:19:56;;;;;;;5.45;4.95;;;20.40;92.40;;;;;;4969951;28;21060;-70
2022/06/18 05:22:22;;;;;;;4.55;4.22;;;20.60;92.30;;;;;;4963656;28;20192;-74
2022/06/18 05:24:48;;;;;;;6.00;5.40;;;20.80;91.70;;;;;;4966654;28;20234;-75
2022/06/18 05:27:25;;;;;;;4.83;4.43;;;20.90;91.50;;;;;;4958024;28;20708;-79
2022/06/18 05:29:50;;;;;;;4.22;3.92;;;21.00;91.40;;;;;;4968198;28;20231;-76
2022/06/18 05:32:16;;;;;;;6.10;5.57;;;21.20;90.80;;;;;;4963548;28;20181;-75
2022/06/18 05:34:41;;;;;;;4.60;3.97;;;21.30;90.30;;;;;;4967264;28;20679;-73
2022/06/18 05:37:19;;;;;;;4.73;4.27;;;21.50;90.40;;;;;;4970206;28;20203;-74
2022/06/18 05:39:44;;;;;;;4.07;3.77;;;21.60;90.00;;;;;;4968432;28;20196;-72
2022/06/18 05:42:10;;;;;;;4.10;3.80;;;21.70;88.30;;;;;;4965112;28;20450;-73
2022/06/18 05:44:36;;;;;;;5.50;4.97;;;21.90;88.00;;;;;;4970565;28;20180;-68
2022/06/18 05:47:26;;;;;;;4.00;3.73;;;22.00;87.50;;;;;;4964801;28;20207;-69
2022/06/18 05:49:52;;;;;;;4.37;3.43;;;22.10;86.80;;;;;;4967097;28;20459;-67
2022/06/18 05:52:19;;;;;;;4.67;4.27;;;22.30;86.50;;;;;;4966600;28;20454;-67
2022/06/18 05:54:46;;;;;;;4.63;4.23;;;22.40;85.50;;;;;;4969737;28;20458;-67
2022/06/18 05:57:12;;;;;;;4.90;4.50;;;22.50;85.80;;;;;;4967409;28;20482;-67
2022/06/18 05:59:39;;;;;;;4.40;4.10;;;22.60;85.40;;;;;;4964494;28;20972;-70
2022/06/18 06:02:05;;;;;;;4.83;4.40;;;22.90;84.90;;;;;;4966779;28;20826;-71
2022/06/18 06:04:31;;;;;;;4.80;4.50;;;23.10;83.90;;;;;;4970097;28;20565;-71
2022/06/18 06:06:57;;;;;;;4.30;4.00;;;23.40;83.50;;;;;;4969677;28;20563;-70
2022/06/18 06:12:12;;;;;;;4.23;3.83;;;23.60;81.60;;;;;;4969463;28;20521;-71
2022/06/18 06:14:39;;;;;;;5.00;4.43;;;23.80;81.30;;;;;;4969099;28;20523;-71
2022/06/18 06:17:10;;;;;;;4.87;4.47;;;23.90;80.60;;;;;;4967216;28;21020;-71
2022/06/18 06:19:36;;;;;;;4.83;4.43;;;24.00;79.80;;;;;;4968643;28;20967;-71
2022/06/18 06:22:02;;;;;;;4.40;4.10;;;24.30;80.50;;;;;;4972543;28;20444;-71
2022/06/18 06:24:28;;;;;;;4.03;3.73;;;24.50;79.40;;;;;;4972064;28;20581;-71
2022/06/18 06:26:54;;;;;;;4.17;3.87;;;24.90;79.10;;;;;;4972863;28;20511;-71
2022/06/18 06:29:20;;;;;;;4.63;4.27;;;25.30;78.10;;;;;;4968307;28;20566;-71
2022/06/18 06:31:45;;;;;;;4.70;4.40;;;25.60;77.10;;;;;;4971451;28;20441;-71
2022/06/18 06:34:11;;;;;;;4.63;4.23;;;25.80;75.30;;;;;;4972250;28;20556;-71
2022/06/18 06:36:36;;;;;;;4.90;4.50;;;25.90;74.00;;;;;;4972076;28;20211;-72
2022/06/18 06:39:03;;;;;;;4.40;4.10;;;26.00;72.90;;;;;;4968896;28;20230;-71
2022/06/18 06:41:30;;;;;;;4.23;3.83;;;25.90;72.50;;;;;;4968098;28;20211;-71
2022/06/18 06:43:56;;;;;;;4.97;4.43;;;26.10;71.80;;;;;;4974703;28;20440;-72
2022/06/18 06:46:22;;;;;;;4.43;4.10;;;26.10;70.20;;;;;;4971457;28;20462;-72
2022/06/18 06:48:48;;;;;;;4.87;4.47;;;26.20;70.00;;;;;;4970383;28;20459;-71
2022/06/18 06:51:19;;;;;;;5.03;4.50;;;26.50;71.40;;;;;;4976156;28;20529;-72
2022/06/18 06:53:45;;;;;;;4.73;4.40;;;26.80;69.60;;;;;;4971971;28;20452;-71
2022/06/18 06:58:56;;;;;;;4.03;3.73;;;26.90;67.30;;;;;;4967888;28;20203;-72
2022/06/18 07:01:22;;;;;;;4.20;3.80;;;27.10;67.40;;;;;;4972124;28;20455;-72
2022/06/18 07:03:48;;;;;;;4.20;3.90;;;27.50;67.40;;;;;;4969545;28;20963;-72
2022/06/18 07:06:16;;;;;;;4.43;4.00;;;28.00;65.50;;;;;;4969024;28;20446;-72
2022/06/18 07:08:43;;;;;;;6.13;4.13;;;29.10;62.90;;;;;;4973477;28;20214;-73
2022/06/18 07:11:10;;;;;;;4.13;3.73;;;30.60;58.40;;;;;;4968600;28;20547;-73
2022/06/18 07:13:36;;;;;;;4.30;4.00;;;32.10;55.80;;;;;;4971428;28;20450;-73
2022/06/18 07:16:02;;;;;;;4.30;4.00;;;33.10;51.30;;;;;;4972537;28;21068;-74
2022/06/18 07:18:35;;;;;;;3.40;3.20;;;33.70;49.20;;;;;;4965252;28;20455;-74
2022/06/18 07:21:03;;;;;;;3.80;3.50;;;36.50;44.70;;;;;;4971234;28;20318;-73
2022/06/18 07:23:29;;;;;;;3.60;3.30;;;38.30;40.60;;;;;;4970897;28;20490;-74
2022/06/18 07:25:54;;;;;;;4.30;3.90;;;40.30;37.40;;;;;;4967811;28;20455;-74
2022/06/18 07:28:20;;;;;;;5.40;4.10;;;40.30;34.80;;;;;;4971322;28;21142;-74
2022/06/18 07:30:46;;;;;;;4.23;3.30;;;39.50;34.10;;;;;;4968668;28;20291;-74
2022/06/18 07:33:16;;;;;;;3.60;3.40;;;40.00;35.10;;;;;;4970646;28;20878;-74
2022/06/18 07:35:42;;;;;;;3.80;3.50;;;41.80;33.40;;;;;;4970098;28;20562;-74
2022/06/18 07:38:07;;;;;;;4.37;3.90;;;41.50;32.20;;;;;;4972974;28;20527;-71
2022/06/18 07:40:38;;;;;;;3.40;3.20;;;41.60;31.30;;;;;;4966733;28;20517;-73
2022/06/18 07:43:08;;;;;;;2.73;2.63;;;42.00;30.60;;;;;;4977070;28;20192;-73
2022/06/18 07:45:35;;;;;;;5.73;3.50;;;42.00;29.60;;;;;;4970028;28;20447;-73
2022/06/18 07:48:00;;;;;;;3.50;3.30;;;40.30;30.70;;;;;;4970413;28;20447;-73
2022/06/18 07:50:26;;;;;;;3.57;2.90;;;39.20;32.10;;;;;;4968411;28;20835;-73
2022/06/18 07:52:52;;;;;;;2.90;2.70;;;40.30;31.50;;;;;;4970141;28;20188;-72
2022/06/18 07:55:22;;;;;;;2.70;2.50;;;39.60;29.50;;;;;;4969496;28;20215;-73
2022/06/18 07:57:49;;;;;;;3.33;2.60;;;39.60;29.70;;;;;;4974923;28;20184;-73
2022/06/18 08:00:17;;;;;;;4.50;2.63;;;39.80;29.00;;;;;;4968647;28;20484;-73
2022/06/18 08:02:43;;;;;;;3.00;2.80;;;40.80;29.50;;;;;;4969564;28;20439;-73
2022/06/18 08:05:11;;;;;;;2.70;2.50;;;41.00;29.60;;;;;;4962757;28;20443;-73
2022/06/18 08:07:36;;;;;;;3.27;2.97;;;42.90;28.20;;;;;;4969698;28;20481;-73
2022/06/18 08:10:03;;;;;;;2.87;2.67;;;44.20;27.50;;;;;;4971324;28;20507;-73
2022/06/18 08:12:30;;;;;;;3.13;2.93;;;44.00;26.10;;;;;;4974023;28;20234;-73
2022/06/18 08:14:58;;;;;;;2.87;2.70;;;44.50;25.90;;;;;;4968264;28;20454;-72
2022/06/18 08:17:23;;;;;;;3.47;2.90;;;45.10;25.40;;;;;;4964896;28;20518;-73
2022/06/18 08:19:49;;;;;;;2.73;2.57;;;44.80;24.90;;;;;;4970409;28;20479;-73
2022/06/18 08:22:15;;;;;;;2.50;2.40;;;43.50;25.10;;;;;;4970222;28;20275;-73
2022/06/18 08:24:41;;;;;;;2.40;2.27;;;43.90;24.80;;;;;;4964684;28;20610;-72
2022/06/18 08:27:07;;;;;;;4.77;3.43;;;44.40;24.30;;;;;;4965105;28;20957;-73
2022/06/18 08:29:34;;;;;;;3.30;3.10;;;44.10;24.30;;;;;;4965520;28;20467;-73
2022/06/18 08:32:00;;;;;;;3.43;3.23;;;44.10;25.30;;;;;;4968598;28;20306;-73
2022/06/18 08:34:26;;;;;;;3.53;3.00;;;45.00;25.20;;;;;;4967546;28;20531;-73
2022/06/18 08:36:52;;;;;;;3.60;2.90;;;45.20;25.00;;;;;;4967078;28;20479;-73
2022/06/18 08:39:17;;;;;;;3.20;2.90;;;45.10;25.00;;;;;;4970418;28;20184;-73
2022/06/18 08:42:18;;;;;;;3.10;2.90;;;45.30;25.20;;;;;;4966576;28;20188;-73
2022/06/18 08:45:02;;;;;;;3.40;3.20;;;43.70;25.80;;;;;;4964286;28;20188;-73
2022/06/18 08:48:04;;;;;;;3.70;3.50;;;45.00;25.60;;;;;;4961826;28;20490;-73
2022/06/18 08:50:56;;;;;;;3.60;3.40;;;44.50;25.30;;;;;;4964372;28;20466;-69
2022/06/18 08:53:51;;;;;;;4.30;4.00;;;44.40;25.40;;;;;;4960934;28;20444;-68
2022/06/18 08:56:42;;;;;;;3.60;3.30;;;44.20;25.80;;;;;;4967212;28;20568;-68
2022/06/18 08:59:23;;;;;;;3.57;3.23;;;44.30;25.00;;;;;;4966684;28;20440;-71
2022/06/18 09:02:15;;;;;;;3.63;3.43;;;44.10;25.60;;;;;;4968012;28;20490;-67
2022/06/18 09:05:02;;;;;;;3.37;3.07;;;44.60;24.80;;;;;;4963674;28;20455;-67
2022/06/18 09:07:51;;;;;;;2.90;2.77;;;43.90;24.80;;;;;;4967743;28;20763;-67
2022/06/18 09:10:37;;;;;;;2.27;2.17;;;44.50;25.10;;;;;;4965340;28;20456;-67
2022/06/18 09:13:29;;;;;;;3.07;2.77;;;43.80;24.30;;;;;;4968027;28;20428;-67
2022/06/18 09:15:59;;;;;;;3.80;3.60;;;44.90;24.30;;;;;;4970707;28;20503;-67
2022/06/18 09:18:36;;;;;;;6.50;6.10;;;45.40;24.20;;;;;;4962834;28;20432;-66
2022/06/18 09:21:10;;;;;;;5.73;5.30;;;45.50;24.20;;;;;;4964786;28;20537;-66
2022/06/18 09:23:54;;;;;;;3.00;2.80;;;45.80;24.20;;;;;;4968131;28;20435;-69
2022/06/18 09:26:24;;;;;;;3.40;3.17;;;44.50;24.70;;;;;;4966981;28;20450;-69
2022/06/18 09:29:01;;;;;;;3.13;2.93;;;44.80;24.50;;;;;;4966835;28;20451;-68
2022/06/18 09:31:55;;;;;;;2.77;2.57;;;44.90;24.90;;;;;;4965729;28;20474;-69
2022/06/18 09:34:29;;;;;;;3.00;2.80;;;44.30;24.50;;;;;;4964241;28;20479;-69
2022/06/18 09:37:01;;;;;;;3.10;2.90;;;44.30;24.40;;;;;;4962715;28;20828;-67
2022/06/18 09:39:37;;;;;;;2.97;2.77;;;44.00;24.80;;;;;;4971084;28;20563;-70
2022/06/18 09:42:19;;;;;;;2.93;2.73;;;44.50;24.40;;;;;;4973100;28;20431;-69
2022/06/18 09:44:53;;;;;;;2.87;2.67;;;44.20;24.00;;;;;;4958797;28;20499;-73
2022/06/18 09:47:24;;;;;;;3.20;3.00;;;43.20;23.80;;;;;;4970683;28;20482;-72
2022/06/18 09:49:50;;;;;;;2.60;2.40;;;42.20;24.40;;;;;;4969948;28;20547;-72
2022/06/18 09:52:32;;;;;;;2.47;2.30;;;42.80;24.60;;;;;;4971765;28;20533;-72
2022/06/18 09:55:07;;;;;;;2.33;2.23;;;43.70;23.00;;;;;;4969562;28;20235;-72
2022/06/18 09:57:37;;;;;;;2.80;2.60;;;43.90;22.90;;;;;;4970480;28;20493;-72
2022/06/18 10:00:23;;;;;;;2.60;2.40;;;44.50;23.20;;;;;;4975160;28;20455;-72
2022/06/18 10:08:57;;;;;;;2.23;2.13;;;44.50;21.30;;;;;;4972129;28;20582;-72
2022/06/18 10:11:24;;;;;;;1.90;1.80;;;44.40;21.80;;;;;;4972082;28;20640;-72
2022/06/18 10:14:15;;;;;;;2.30;1.70;;;44.50;21.30;;;;;;4969542;28;20455;-72
2022/06/18 10:17:22;;;;;;;4.70;2.30;;;44.70;20.80;;;;;;4972626;28;20483;-72
2022/06/18 10:20:02;;;;;;;1.87;1.77;;;45.10;20.40;;;;;;4969931;28;20471;-72
2022/06/18 10:22:48;;;;;;;2.37;2.20;;;44.80;19.40;;;;;;4976583;28;20492;-72
2022/06/18 10:25:41;;;;;;;2.03;1.70;;;44.30;20.60;;;;;;4972474;28;21093;-72
2022/06/18 10:28:33;;;;;;;1.60;1.50;;;45.00;20.20;;;;;;4969438;28;20455;-72
2022/06/18 10:31:15;;;;;;;2.40;1.97;;;45.70;20.10;;;;;;4964720;28;20463;-72
2022/06/18 10:33:42;;;;;;;1.70;1.60;;;45.40;19.90;;;;;;4971834;28;20976;-72
2022/06/18 10:36:28;;;;;;;2.60;2.20;;;44.90;19.80;;;;;;4971523;28;20471;-72
2022/06/18 10:39:26;;;;;;;2.50;2.10;;;44.30;20.10;;;;;;4971961;28;20439;-72
2022/06/18 10:42:12;;;;;;;2.30;2.07;;;44.30;21.20;;;;;;4978521;28;20477;-72
2022/06/18 10:44:56;;;;;;;5.53;2.50;;;44.40;21.70;;;;;;4970515;28;20938;-72
2022/06/18 10:47:21;;;;;;;2.50;2.23;;;43.30;22.80;;;;;;4966926;28;20541;-72
2022/06/18 10:49:59;;;;;;;2.27;2.10;;;43.10;22.50;;;;;;4970585;28;21002;-72
2022/06/18 10:52:25;;;;;;;1.97;1.87;;;43.40;22.00;;;;;;4968268;28;20660;-72
2022/06/18 10:55:04;;;;;;;4.40;2.00;;;44.00;21.20;;;;;;4971393;28;20443;-72
2022/06/18 10:57:29;;;;;;;2.93;2.50;;;43.50;21.60;;;;;;4970587;28;20458;-72
2022/06/18 10:59:55;;;;;;;3.60;2.57;;;43.40;22.20;;;;;;4971532;28;20467;-72
2022/06/18 11:02:32;;;;;;;3.23;2.70;;;43.50;22.30;;;;;;4968324;28;20667;-72
2022/06/18 11:05:03;;;;;;;2.57;2.37;;;43.50;22.60;;;;;;4970421;28;20199;-72
2022/06/18 11:07:31;;;;;;;2.73;2.53;;;43.30;22.40;;;;;;4966475;28;20448;-72
2022/06/18 11:10:20;;;;;;;2.50;2.30;;;43.40;22.70;;;;;;4971589;28;20459;-73
2022/06/18 11:12:53;;;;;;;2.80;2.50;;;43.50;22.80;;;;;;4967587;28;20999;-73
2022/06/18 11:15:35;;;;;;;2.57;2.30;;;43.20;22.40;;;;;;4970458;28;20450;-72
2022/06/18 11:18:21;;;;;;;3.07;2.87;;;42.20;23.20;;;;;;4969205;28;20442;-72
2022/06/18 11:21:00;;;;;;;3.13;2.93;;;43.20;23.50;;;;;;4969655;28;20459;-72
2022/06/18 11:23:27;;;;;;;2.83;2.63;;;42.50;24.10;;;;;;4967881;28;20443;-72
2022/06/18 11:25:56;;;;;;;3.10;2.80;;;42.40;24.40;;;;;;4968244;28;20437;-72
2022/06/18 11:28:33;;;;;;;2.80;2.60;;;42.50;24.20;;;;;;4970358;28;20831;-72
2022/06/18 11:31:02;;;;;;;3.43;3.23;;;42.00;23.80;;;;;;4970363;28;20560;-72
2022/06/18 11:33:35;;;;;;;2.83;2.60;;;40.40;25.10;;;;;;4966985;28;20998;-71
2022/06/18 11:36:15;;;;;;;4.27;3.07;;;40.80;25.60;;;;;;4972035;28;20518;-72
2022/06/18 11:38:54;;;;;;;3.80;2.60;;;40.80;25.70;;;;;;4969379;28;20439;-72
2022/06/18 11:41:45;;;;;;;3.20;2.90;;;40.90;25.90;;;;;;4964788;28;20979;-72
2022/06/18 11:44:18;;;;;;;3.50;2.93;;;40.50;26.00;;;;;;4966891;28;20448;-72
2022/06/18 11:46:52;;;;;;;5.37;3.70;;;40.50;26.10;;;;;;4968851;28;20470;-72
2022/06/18 11:49:24;;;;;;;3.63;3.00;;;40.40;26.20;;;;;;4967982;28;20537;-72
2022/06/18 11:52:01;;;;;;;5.33;2.67;;;39.70;26.20;;;;;;4966730;28;20913;-72
2022/06/18 11:54:52;;;;;;;5.37;3.27;;;39.30;26.20;;;;;;4974095;28;20533;-72
2022/06/18 11:57:33;;;;;;;3.10;2.77;;;38.70;26.90;;;;;;4968227;28;20992;-72
2022/06/18 12:00:01;;;;;;;3.93;2.50;;;38.10;27.30;;;;;;4974756;28;20487;-72
2022/06/18 12:02:49;;;;;;;3.50;3.10;;;37.70;27.50;;;;;;4963927;28;20527;-72
2022/06/18 12:05:26;;;;;;;8.00;2.87;;;36.90;27.90;;;;;;4975907;28;20470;-72
2022/06/18 12:07:58;;;;;;;5.73;2.97;;;36.50;28.40;;;;;;4969846;28;20791;-72
2022/06/18 12:10:38;;;;;;;7.80;3.13;;;36.20;28.60;;;;;;4970307;28;20457;-72
2022/06/18 12:13:13;;;;;;;5.70;2.90;;;36.00;28.80;;;;;;4965479;28;21248;-72
2022/06/18 12:16:03;;;;;;;4.80;2.60;;;35.90;29.30;;;;;;4969237;28;20466;-72
2022/06/18 12:18:49;;;;;;;4.43;2.77;;;35.80;29.30;;;;;;4966451;28;20925;-72
2022/06/18 12:21:20;;;;;;;7.93;3.93;;;35.60;29.30;;;;;;4965300;28;20459;-72
2022/06/18 12:24:07;;;;;;;7.40;3.63;;;35.40;29.70;;;;;;4966235;28;20468;-72
2022/06/18 12:26:40;;;;;;;9.67;3.93;;;35.30;29.80;;;;;;4969819;28;20431;-72
2022/06/18 12:29:24;;;;;;;3.23;2.90;;;35.20;30.60;;;;;;4969557;28;20454;-72
2022/06/18 12:32:02;;;;;;;5.43;3.50;;;35.10;30.90;;;;;;4970303;28;20435;-70
2022/06/18 12:34:31;;;;;;;5.23;3.60;;;35.10;30.70;;;;;;4966002;28;20828;-70
2022/06/18 12:37:12;;;;;;;5.13;3.33;;;35.00;30.50;;;;;;4970039;28;20471;-64
2022/06/18 12:39:43;;;;;;;6.27;4.87;;;34.90;31.10;;;;;;4966012;28;20868;-66
2022/06/18 12:42:32;;;;;;;6.93;3.83;;;34.80;31.70;;;;;;4969457;28;20443;-65
2022/06/18 12:45:02;;;;;;;7.60;3.63;;;34.80;31.80;;;;;;4972267;28;20444;-67
2022/06/18 12:47:43;;;;;;;7.37;3.50;;;34.90;32.10;;;;;;4964845;28;20443;-67
2022/06/18 12:50:27;;;;;;;7.37;3.63;;;35.00;31.70;;;;;;4962690;28;20471;-66
2022/06/18 12:53:03;;;;;;;7.93;3.70;;;35.00;31.90;;;;;;4970314;28;20444;-68
2022/06/18 12:55:59;;;;;;;9.07;3.87;;;34.90;32.60;;;;;;4967455;28;20466;-68
2022/06/18 12:58:35;;;;;;;8.67;3.60;;;34.90;32.20;;;;;;4961660;28;21233;-70
2022/06/18 13:01:20;;;;;;;8.97;3.60;;;34.80;32.40;;;;;;4969403;28;20557;-66
2022/06/18 13:04:03;;;;;;;5.50;3.80;;;34.80;32.60;;;;;;4960321;28;20530;-66
2022/06/18 13:06:45;;;;;;;6.53;4.03;;;34.80;32.90;;;;;;4966532;28;20443;-66
2022/06/18 13:09:25;;;;;;;5.87;3.87;;;34.70;33.40;;;;;;4967325;28;20499;-67
2022/06/18 13:12:21;;;;;;;6.50;3.70;;;34.70;33.90;;;;;;4967208;28;20976;-65
2022/06/18 13:15:04;;;;;;;8.87;3.80;;;34.80;34.00;;;;;;4962333;28;20436;-65
2022/06/18 13:17:43;;;;;;;6.57;4.10;;;34.70;34.40;;;;;;4965773;28;20994;-70
2022/06/18 13:20:16;;;;;;;7.10;4.43;;;34.60;34.70;;;;;;4965778;28;20545;-64
2022/06/18 13:22:41;;;;;;;7.97;4.00;;;34.50;35.10;;;;;;4969529;28;20467;-64
2022/06/18 13:28:23;;;;;;;5.07;4.03;;;34.60;35.60;;;;;;4966253;28;20259;-65
2022/06/18 13:31:23;;;;;;;6.47;3.87;;;34.70;35.50;;;;;;4969570;28;20933;-65
2022/06/18 13:34:16;;;;;;;5.33;3.80;;;34.60;35.60;;;;;;4955971;28;20439;-65
2022/06/18 13:37:03;;;;;;;5.73;4.20;;;34.50;36.40;;;;;;4966311;28;20537;-74
2022/06/18 13:39:58;;;;;;;7.10;4.20;;;34.50;36.10;;;;;;4967334;28;20454;-78